createdAt,value
2018-06-01T00:02:27.060Z,20.50
2018-06-01T00:04:55.374Z,19.03
2018-06-01T00:07:23.032Z,18.50
2018-06-01T00:09:50.613Z,18.93
2018-06-01T00:12:18.194Z,19.47
2018-06-01T00:14:46.615Z,18.33
2018-06-01T00:17:14.204Z,18.37
2018-06-01T00:19:41.894Z,18.80
2018-06-01T00:22:09.488Z,16.90
2018-06-01T00:24:37.825Z,20.13
2018-06-01T00:27:05.393Z,22.70
2018-06-01T00:29:32.956Z,22.27
2018-06-01T00:32:00.651Z,24.83
2018-06-01T00:34:28.233Z,23.27
2018-06-01T00:36:55.819Z,26.10
2018-06-01T00:39:23.395Z,23.20
2018-06-01T00:41:51.078Z,23.57
2018-06-01T00:44:19.423Z,24.40
2018-06-01T00:46:47.053Z,21.83
2018-06-01T00:49:14.632Z,24.93
2018-06-01T00:51:42.223Z,23.17
2018-06-01T00:54:09.796Z,24.47
2018-06-01T00:56:37.440Z,23.33
2018-06-01T00:59:05.161Z,22.83
2018-06-01T01:01:32.723Z,25.33
2018-06-01T01:04:00.296Z,24.67
2018-06-01T01:06:27.872Z,23.87
2018-06-01T01:08:55.457Z,23.17
2018-06-01T01:11:23.012Z,26.47
2018-06-01T01:13:50.583Z,24.20
2018-06-01T01:16:18.151Z,26.83
2018-06-01T01:18:46.538Z,24.27
2018-06-01T01:21:14.867Z,24.47
2018-06-01T01:23:42.484Z,24.70
2018-06-01T01:26:10.053Z,26.37
2018-06-01T01:28:37.633Z,24.07
2018-06-01T01:31:05.197Z,23.33
2018-06-01T01:33:32.752Z,23.37
2018-06-01T01:36:00.333Z,26.43
2018-06-01T01:38:27.887Z,25.30
2018-06-01T01:40:59.463Z,24.57
2018-06-01T01:43:27.022Z,24.83
2018-06-01T01:45:54.634Z,26.90
2018-06-01T01:48:22.909Z,25.27
2018-06-01T01:50:50.491Z,27.70
2018-06-01T01:53:18.053Z,26.53
2018-06-01T01:55:45.653Z,27.53
2018-06-01T01:58:14.733Z,27.57
2018-06-01T02:00:42.516Z,27.37
2018-06-01T02:03:10.132Z,27.83
2018-06-01T02:05:37.704Z,24.83
2018-06-01T02:08:05.271Z,28.00
2018-06-01T02:10:32.847Z,27.20
2018-06-01T02:13:00.457Z,27.47
2018-06-01T02:15:28.033Z,29.67
2018-06-01T02:17:55.599Z,27.40
2018-06-01T02:20:23.222Z,28.57
2018-06-01T02:22:50.734Z,27.17
2018-06-01T02:25:18.287Z,29.20
2018-06-01T02:27:45.891Z,29.50
2018-06-01T02:30:14.232Z,27.53
2018-06-01T02:32:41.944Z,28.27
2018-06-01T02:35:09.558Z,27.60
2018-06-01T02:37:37.122Z,28.23
2018-06-01T02:40:04.693Z,30.40
2018-06-01T02:42:32.278Z,29.57
2018-06-01T02:45:00.629Z,26.83
2018-06-01T02:47:28.179Z,28.07
2018-06-01T02:49:55.843Z,30.63
2018-06-01T02:52:23.432Z,26.57
2018-06-01T02:54:51.753Z,31.67
2018-06-01T02:57:19.300Z,26.37
2018-06-01T02:59:46.872Z,27.80
2018-06-01T03:02:14.451Z,29.97
2018-06-01T03:04:42.015Z,29.70
2018-06-01T03:07:12.352Z,28.97
2018-06-01T03:09:39.912Z,28.30
2018-06-01T03:12:07.487Z,26.80
2018-06-01T03:14:35.049Z,25.80
2018-06-01T03:17:02.621Z,26.77
2018-06-01T03:19:30.948Z,28.87
2018-06-01T03:21:58.621Z,24.60
2018-06-01T03:24:26.185Z,29.30
2018-06-01T03:26:53.739Z,30.03
2018-06-01T03:29:21.301Z,29.63
2018-06-01T03:31:48.863Z,28.90
2018-06-01T03:34:16.428Z,28.63
2018-06-01T03:36:43.993Z,29.53
2018-06-01T03:39:11.548Z,15.67
2018-06-01T03:41:39.184Z,13.17
2018-06-01T03:44:06.863Z,14.20
2018-06-01T03:46:34.409Z,17.57
2018-06-01T03:49:02.163Z,19.00
2018-06-01T03:51:29.735Z,12.27
2018-06-01T03:53:57.427Z,10.57
2018-06-01T03:56:25.151Z,8.87
2018-06-01T03:58:52.752Z,8.20
2018-06-01T04:01:20.312Z,7.03
2018-06-01T04:03:47.867Z,6.33
2018-06-01T04:06:15.500Z,5.57
2018-06-01T04:08:43.076Z,4.60
2018-06-01T04:11:10.669Z,4.30
2018-06-01T04:13:38.230Z,3.90
2018-06-01T04:16:05.800Z,4.23
2018-06-01T04:18:34.199Z,4.10
2018-06-01T04:21:01.885Z,4.43
2018-06-01T04:23:29.639Z,4.43
2018-06-01T04:25:57.196Z,5.17
2018-06-01T04:28:24.771Z,5.00
2018-06-01T04:30:52.344Z,5.77
2018-06-01T04:33:19.920Z,6.70
2018-06-01T04:35:47.481Z,6.10
2018-06-01T04:38:15.044Z,6.43
2018-06-01T04:40:42.596Z,7.27
2018-06-01T04:43:10.367Z,7.13
2018-06-01T04:45:37.919Z,8.03
2018-06-01T04:48:05.541Z,8.17
2018-06-01T04:50:33.153Z,9.40
2018-06-01T04:53:00.728Z,9.90
2018-06-01T04:55:29.067Z,14.83
2018-06-01T04:57:56.660Z,15.60
2018-06-01T05:00:24.983Z,15.90
2018-06-01T05:02:52.535Z,19.80
2018-06-01T05:05:20.106Z,18.53
2018-06-01T05:07:47.716Z,20.73
2018-06-01T05:10:15.322Z,24.27
2018-06-01T05:12:42.918Z,23.03
2018-06-01T05:15:10.468Z,20.83
2018-06-01T05:17:38.017Z,23.40
2018-06-01T05:20:05.708Z,29.20
2018-06-01T05:22:33.263Z,31.57
2018-06-01T05:25:00.856Z,25.57
2018-06-01T05:27:29.168Z,23.67
2018-06-01T05:29:56.860Z,22.43
2018-06-01T05:32:24.660Z,23.90
2018-06-01T05:34:52.996Z,21.97
2018-06-01T05:37:20.584Z,20.50
2018-06-01T05:39:48.392Z,19.47
2018-06-01T05:42:15.972Z,22.07
2018-06-01T05:44:43.749Z,22.30
2018-06-01T05:47:11.336Z,24.67
2018-06-01T05:49:38.901Z,27.70
2018-06-01T05:52:06.466Z,30.53
2018-06-01T05:54:34.788Z,31.17
2018-06-01T05:57:02.480Z,37.70
2018-06-01T05:59:30.037Z,31.47
2018-06-01T06:01:57.619Z,38.30
2018-06-01T06:04:25.187Z,40.07
2018-06-01T06:06:53.604Z,44.57
2018-06-01T06:09:21.172Z,43.10
2018-06-01T06:11:48.767Z,51.40
2018-06-01T06:14:16.404Z,50.67
2018-06-01T06:16:43.971Z,48.40
2018-06-01T06:19:11.536Z,48.30
2018-06-01T06:21:39.147Z,41.63
2018-06-01T06:24:06.696Z,44.60
2018-06-01T06:26:35.105Z,44.53
2018-06-01T06:29:02.656Z,43.13
2018-06-01T06:31:30.275Z,47.13
2018-06-01T06:33:58.551Z,46.73
2018-06-01T06:36:26.120Z,42.60
2018-06-01T06:38:53.680Z,47.77
2018-06-01T06:41:21.240Z,47.60
2018-06-01T06:43:48.813Z,44.77
2018-06-01T06:46:17.244Z,45.67
2018-06-01T06:48:44.836Z,43.37
2018-06-01T06:51:12.384Z,41.90
2018-06-01T06:53:39.981Z,38.97
2018-06-01T06:56:08.380Z,40.10
2018-06-01T06:58:35.995Z,43.63
2018-06-01T07:01:03.563Z,39.20
2018-06-01T07:03:31.152Z,39.30
2018-06-01T07:05:58.743Z,43.80
2018-06-01T07:08:26.313Z,43.00
2018-06-01T07:10:53.927Z,44.03
2018-06-01T07:13:22.288Z,43.10
2018-06-01T07:15:49.887Z,39.80
2018-06-01T07:18:17.562Z,37.73
2018-06-01T07:20:45.877Z,38.80
2018-06-01T07:23:13.480Z,41.17
2018-06-01T07:25:41.054Z,40.50
2018-06-01T07:28:08.605Z,38.63
2018-06-01T07:30:36.164Z,39.03
2018-06-01T07:33:03.735Z,43.27
2018-06-01T07:35:31.300Z,39.53
2018-06-01T07:37:58.863Z,43.27
2018-06-01T07:40:26.441Z,43.40
2018-06-01T07:42:54.007Z,37.33
2018-06-01T07:45:21.604Z,39.77
2018-06-01T07:47:49.924Z,38.20
2018-06-01T07:50:17.516Z,38.13
2018-06-01T07:52:45.097Z,34.53
2018-06-01T07:55:13.415Z,33.17
2018-06-01T07:57:41.020Z,31.47
2018-06-01T08:00:09.352Z,31.00
2018-06-01T08:02:36.959Z,30.87
2018-06-01T08:05:06.032Z,35.53
2018-06-01T08:07:33.653Z,33.67
2018-06-01T08:10:01.964Z,32.57
2018-06-01T08:12:29.543Z,33.87
2018-06-01T08:14:57.100Z,33.77
2018-06-01T08:17:24.676Z,38.97
2018-06-01T08:19:52.343Z,36.47
2018-06-01T08:22:21.424Z,32.20
2018-06-01T08:24:49.057Z,36.33
2018-06-01T08:27:16.658Z,38.07
2018-06-01T08:29:44.324Z,35.93
2018-06-01T08:32:11.889Z,34.90
2018-06-01T08:34:40.238Z,35.27
2018-06-01T08:37:07.828Z,33.70
2018-06-01T08:39:36.168Z,33.77
2018-06-01T08:42:03.728Z,35.53
2018-06-01T08:44:31.381Z,38.47
2018-06-01T08:46:59.092Z,27.83
2018-06-01T08:49:26.730Z,23.83
2018-06-01T08:51:54.310Z,17.03
2018-06-01T08:54:21.894Z,16.70
2018-06-01T08:56:50.236Z,16.57
2018-06-01T08:59:17.814Z,17.63
2018-06-01T09:01:45.440Z,21.50
2018-06-01T09:04:13.029Z,17.83
2018-06-01T09:06:40.837Z,18.17
2018-06-01T09:09:08.412Z,20.03
2018-06-01T09:11:35.966Z,20.40
2018-06-01T09:14:03.728Z,20.83
2018-06-01T09:16:31.335Z,18.70
2018-06-01T09:18:58.892Z,19.90
2018-06-01T09:21:26.519Z,17.63
2018-06-01T09:23:54.056Z,17.43
2018-06-01T09:26:21.674Z,20.37
2018-06-01T09:28:49.255Z,20.57
2018-06-01T09:31:17.721Z,18.97
2018-06-01T09:33:45.275Z,22.27
2018-06-01T09:36:12.876Z,19.90
2018-06-01T09:38:40.439Z,21.37
2018-06-01T09:41:08.053Z,20.17
2018-06-01T09:43:35.605Z,17.30
2018-06-01T09:46:03.234Z,20.40
2018-06-01T09:48:30.790Z,18.00
2018-06-01T09:50:58.376Z,19.57
2018-06-01T09:53:26.061Z,16.20
2018-06-01T09:55:53.637Z,13.17
2018-06-01T09:58:21.216Z,14.67
2018-06-01T10:00:55.128Z,15.13
2018-06-01T10:03:22.805Z,13.57
2018-06-01T10:05:50.351Z,13.77
2018-06-01T10:08:17.999Z,14.17
2018-06-01T10:10:46.326Z,14.53
2018-06-01T10:13:13.903Z,15.03
2018-06-01T10:15:41.530Z,12.53
2018-06-01T10:18:09.123Z,13.47
2018-06-01T10:20:36.704Z,14.70
2018-06-01T10:23:04.260Z,12.87
2018-06-01T10:25:32.605Z,11.93
2018-06-01T10:28:00.184Z,11.70
2018-06-01T10:30:27.824Z,14.90
2018-06-01T10:32:55.477Z,13.40
2018-06-01T10:35:23.768Z,13.50
2018-06-01T10:37:51.432Z,12.80
2018-06-01T10:40:19.005Z,12.50
2018-06-01T10:42:46.617Z,11.87
2018-06-01T10:45:14.199Z,14.73
2018-06-01T10:47:41.713Z,18.43
2018-06-01T10:50:10.065Z,21.53
2018-06-01T10:52:37.644Z,20.17
2018-06-01T10:55:05.500Z,20.00
2018-06-01T10:57:33.021Z,21.40
2018-06-01T11:00:00.689Z,28.40
2018-06-01T11:02:28.316Z,17.87
2018-06-01T11:04:56.655Z,17.07
2018-06-01T11:07:24.281Z,12.70
2018-06-01T11:09:51.883Z,15.83
2018-06-01T11:12:20.229Z,13.40
2018-06-01T11:14:47.822Z,11.67
2018-06-01T11:17:15.396Z,10.90
2018-06-01T11:19:42.947Z,11.87
2018-06-01T11:22:10.620Z,8.97
2018-06-01T11:24:38.176Z,10.23
2018-06-01T11:27:05.783Z,7.60
2018-06-01T11:29:34.085Z,6.93
2018-06-01T11:32:01.688Z,7.67
2018-06-01T11:34:30.007Z,6.30
2018-06-01T11:36:57.574Z,7.90
2018-06-01T11:39:25.151Z,6.93
2018-06-01T11:41:52.737Z,7.17
2018-06-01T11:44:20.303Z,7.10
2018-06-01T11:46:48.644Z,7.27
2018-06-01T11:49:16.211Z,7.57
2018-06-01T11:51:43.768Z,6.10
2018-06-01T11:54:11.332Z,6.43
2018-06-01T11:56:38.899Z,5.73
2018-06-01T11:59:07.332Z,5.33
2018-06-01T12:01:34.913Z,5.40
2018-06-01T12:04:02.617Z,5.43
2018-06-01T12:06:30.413Z,6.03
2018-06-01T12:08:58.854Z,4.87
2018-06-01T12:11:26.588Z,3.70
2018-06-01T12:13:54.187Z,3.73
2018-06-01T12:16:21.845Z,3.77
2018-06-01T12:18:49.460Z,6.10
2018-06-01T12:21:17.118Z,5.30
2018-06-01T12:23:44.695Z,5.20
2018-06-01T12:26:12.416Z,4.97
2018-06-01T12:28:40.044Z,4.87
2018-06-01T12:31:07.704Z,5.67
2018-06-01T12:33:35.283Z,5.43
2018-06-01T12:36:02.877Z,6.13
2018-06-01T12:38:30.599Z,5.20
2018-06-01T12:40:58.245Z,6.53
2018-06-01T12:43:25.839Z,4.97
2018-06-01T12:45:53.557Z,5.00
2018-06-01T12:48:21.136Z,5.13
2018-06-01T12:50:48.688Z,4.73
2018-06-01T12:53:16.279Z,5.00
2018-06-01T12:55:44.623Z,5.33
2018-06-01T12:58:12.224Z,4.33
2018-06-01T13:00:40.576Z,4.53
2018-06-01T13:03:08.154Z,4.67
2018-06-01T13:05:35.783Z,4.23
2018-06-01T13:08:03.420Z,4.13
2018-06-01T13:10:31.140Z,5.13
2018-06-01T13:12:58.751Z,4.70
2018-06-01T13:15:26.960Z,5.30
2018-06-01T13:17:54.532Z,4.70
2018-06-01T13:20:22.089Z,4.10
2018-06-01T13:22:50.139Z,5.13
2018-06-01T13:25:17.696Z,3.87
2018-06-01T13:27:45.277Z,5.00
2018-06-01T13:30:12.858Z,4.13
2018-06-01T13:32:41.204Z,5.17
2018-06-01T13:35:08.753Z,5.10
2018-06-01T13:37:36.434Z,5.23
2018-06-01T13:40:04.014Z,5.13
2018-06-01T13:42:31.573Z,6.80
2018-06-01T13:44:59.148Z,4.90
2018-06-01T13:47:27.504Z,5.60
2018-06-01T13:49:55.219Z,6.30
2018-06-01T13:52:22.789Z,6.33
2018-06-01T13:54:50.440Z,6.43
2018-06-01T13:57:18.024Z,6.30
2018-06-01T13:59:45.599Z,6.30
2018-06-01T14:02:13.163Z,5.90
2018-06-01T14:04:40.848Z,6.73
2018-06-01T14:07:09.268Z,6.57
2018-06-01T14:09:36.859Z,7.10
2018-06-01T14:12:04.483Z,6.13
2018-06-01T14:14:32.054Z,6.87
2018-06-01T14:16:59.681Z,6.17
2018-06-01T14:19:28.019Z,6.20
2018-06-01T14:21:55.573Z,6.73
2018-06-01T14:24:23.244Z,8.47
2018-06-01T14:26:50.846Z,6.97
2018-06-01T14:29:19.233Z,6.90
2018-06-01T14:31:46.792Z,8.60
2018-06-01T14:34:14.519Z,8.50
2018-06-01T14:36:42.132Z,8.13
2018-06-01T14:39:09.689Z,8.53
2018-06-01T14:41:37.279Z,7.97
2018-06-01T14:44:04.833Z,8.80
2018-06-01T14:46:32.413Z,8.43
2018-06-01T14:49:00.047Z,8.63
2018-06-01T14:51:27.647Z,6.20
2018-06-01T14:53:55.189Z,7.93
2018-06-01T14:56:22.763Z,7.83
2018-06-01T14:58:50.504Z,8.37
2018-06-01T15:01:18.076Z,6.63
2018-06-01T15:03:45.652Z,7.73
2018-06-01T15:06:13.315Z,9.40
2018-06-01T15:08:40.932Z,9.40
2018-06-01T15:11:08.522Z,8.50
2018-06-01T15:13:36.104Z,10.53
2018-06-01T15:16:03.686Z,9.97
2018-06-01T15:18:31.300Z,9.73
2018-06-01T15:20:58.884Z,10.23
2018-06-01T15:23:27.207Z,9.83
2018-06-01T15:25:54.788Z,11.00
2018-06-01T15:28:22.363Z,13.50
2018-06-01T15:30:49.955Z,14.27
2018-06-01T15:33:18.355Z,13.43
2018-06-01T15:35:45.924Z,13.93
2018-06-01T15:38:13.592Z,15.00
2018-06-01T15:40:41.335Z,15.07
2018-06-01T15:43:09.687Z,15.00
2018-06-01T15:45:37.289Z,12.47
2018-06-01T15:48:04.846Z,12.03
2018-06-01T15:50:32.460Z,10.27
2018-06-01T15:53:00.127Z,9.83
2018-06-01T15:55:27.696Z,11.43
2018-06-01T15:57:56.045Z,9.53
2018-06-01T16:00:23.673Z,10.73
2018-06-01T16:02:51.236Z,8.30
2018-06-01T16:05:18.797Z,11.37
2018-06-01T16:07:46.388Z,9.93
2018-06-01T16:10:13.951Z,8.80
2018-06-01T16:12:41.555Z,8.40
2018-06-01T16:15:10.760Z,7.70
2018-06-01T16:17:38.356Z,7.80
2018-06-01T16:20:05.906Z,6.97
2018-06-01T16:22:33.500Z,8.87
2018-06-01T16:25:01.059Z,7.27
2018-06-01T16:27:29.861Z,6.83
2018-06-01T16:29:57.416Z,6.63
2018-06-01T16:32:25.057Z,7.53
2018-06-01T16:34:52.629Z,7.23
2018-06-01T16:37:20.216Z,6.57
2018-06-01T16:39:48.565Z,7.47
2018-06-01T16:42:17.638Z,7.13
2018-06-01T16:44:46.819Z,6.97
2018-06-01T16:47:14.380Z,7.80
2018-06-01T16:49:41.961Z,6.63
2018-06-01T16:52:09.556Z,6.43
2018-06-01T16:54:37.153Z,7.60
2018-06-01T16:57:04.733Z,7.80
2018-06-01T16:59:32.325Z,7.60
2018-06-01T17:02:00.644Z,8.10
2018-06-01T17:04:28.241Z,9.50
2018-06-01T17:06:55.817Z,11.10
2018-06-01T17:09:23.385Z,7.90
2018-06-01T17:11:50.945Z,9.50
2018-06-01T17:14:19.305Z,9.60
2018-06-01T17:16:46.884Z,10.50
2018-06-01T17:19:17.467Z,10.37
2018-06-01T17:21:45.084Z,11.13
2018-06-01T17:24:12.633Z,12.53
2018-06-01T17:26:42.053Z,12.30
2018-06-01T17:29:10.483Z,12.83
2018-06-01T17:31:38.060Z,12.50
2018-06-01T17:34:05.641Z,11.93
2018-06-01T17:36:33.219Z,14.90
2018-06-01T17:39:01.562Z,14.83
2018-06-01T17:41:30.710Z,15.07
2018-06-01T17:43:59.066Z,15.40
2018-06-01T17:46:26.649Z,15.57
2018-06-01T17:48:55.045Z,18.23
2018-06-01T17:51:22.572Z,20.53
2018-06-01T17:53:50.930Z,19.13
2018-06-01T17:56:18.520Z,20.07
2018-06-01T17:58:46.841Z,22.43
2018-06-01T18:01:14.432Z,24.73
2018-06-01T18:03:41.984Z,20.93
2018-06-01T18:06:09.584Z,24.87
2018-06-01T18:08:37.927Z,27.37
2018-06-01T18:11:05.488Z,26.00
2018-06-01T18:13:33.056Z,25.63
2018-06-01T18:16:00.675Z,26.27
2018-06-01T18:18:28.303Z,26.73
2018-06-01T18:20:56.616Z,26.90
2018-06-01T18:23:25.535Z,28.10
2018-06-01T18:25:53.108Z,27.63
2018-06-01T18:28:20.787Z,32.03
2018-06-01T18:30:49.252Z,28.17
2018-06-01T18:33:16.876Z,29.13
2018-06-01T18:35:44.463Z,32.20
2018-06-01T18:38:12.088Z,35.37
2018-06-01T18:40:39.754Z,29.60
2018-06-01T18:43:07.504Z,34.20
2018-06-01T18:45:35.069Z,30.00
2018-06-01T18:48:02.741Z,34.10
2018-06-01T18:50:30.292Z,30.23
2018-06-01T18:52:57.856Z,31.60
2018-06-01T18:55:26.584Z,27.53
2018-06-01T18:57:54.164Z,28.13
2018-06-01T19:00:22.541Z,26.63
2018-06-01T19:02:50.097Z,28.27
2018-06-01T19:05:17.719Z,30.60
2018-06-01T19:07:45.276Z,29.20
2018-06-01T19:10:12.853Z,29.80
2018-06-01T19:12:40.409Z,24.23
2018-06-01T19:15:07.999Z,24.77
2018-06-01T19:17:35.640Z,23.80
2018-06-01T19:20:03.258Z,28.47
2018-06-01T19:22:30.876Z,27.57
2018-06-01T19:24:58.448Z,25.80
2018-06-01T19:27:26.784Z,25.80
2018-06-01T19:29:54.403Z,27.53
2018-06-01T19:32:21.964Z,30.00
2018-06-01T19:34:50.318Z,26.00
2018-06-01T19:37:17.918Z,29.13
2018-06-01T19:39:45.498Z,32.97
2018-06-01T19:42:13.815Z,30.40
2018-06-01T19:44:42.302Z,28.17
2018-06-01T19:47:10.625Z,29.67
2018-06-01T19:49:38.263Z,31.83
2018-06-01T19:52:06.576Z,34.00
2018-06-01T19:54:34.175Z,37.03
2018-06-01T19:57:01.745Z,36.13
2018-06-01T19:59:29.384Z,37.53
2018-06-01T20:01:56.956Z,38.20
2018-06-01T20:04:25.447Z,32.80
2018-06-01T20:06:56.984Z,41.37
2018-06-01T20:09:24.541Z,40.83
2018-06-01T20:11:52.159Z,39.00
2018-06-01T20:14:19.757Z,38.97
2018-06-01T20:16:49.165Z,39.67
2018-06-01T20:19:16.782Z,40.40
2018-06-01T20:21:46.310Z,36.27
2018-06-01T20:24:13.905Z,33.93
2018-06-01T20:26:42.259Z,41.83
2018-06-01T20:29:10.620Z,38.07
2018-06-01T20:31:39.602Z,38.80
2018-06-01T20:34:07.168Z,37.67
2018-06-01T20:36:34.736Z,42.80
2018-06-01T20:39:02.289Z,36.80
2018-06-01T20:41:29.855Z,36.37
2018-06-01T20:43:57.404Z,35.50
2018-06-01T20:46:24.983Z,43.70
2018-06-01T20:48:52.628Z,39.77
2018-06-01T20:51:20.263Z,39.47
2018-06-01T20:53:47.792Z,39.07
2018-06-01T20:56:17.452Z,42.47
2018-06-01T20:58:45.025Z,38.13
2018-06-01T21:01:12.611Z,43.87
2018-06-01T21:03:40.388Z,38.43
2018-06-01T21:06:08.036Z,38.73
2018-06-01T21:08:35.607Z,42.30
2018-06-01T21:11:03.226Z,41.37
2018-06-01T21:13:30.824Z,43.73
2018-06-01T21:15:58.554Z,40.77
2018-06-01T21:18:26.109Z,46.97
2018-06-01T21:20:53.664Z,42.03
2018-06-01T21:23:21.277Z,42.50
2018-06-01T21:25:48.839Z,47.90
2018-06-01T21:28:17.793Z,51.67
2018-06-01T21:30:45.412Z,45.27
2018-06-01T21:35:47.448Z,52.77
2018-06-01T21:38:15.036Z,44.80
2018-06-01T21:40:42.718Z,46.60
2018-06-01T21:43:11.718Z,47.70
2018-06-01T21:45:40.313Z,42.90
2018-06-01T21:48:08.033Z,46.03
2018-06-01T21:50:36.380Z,45.13
2018-06-01T21:53:07.038Z,41.80
2018-06-01T21:55:34.617Z,44.43
2018-06-01T21:58:02.229Z,50.83
2018-06-01T22:00:29.926Z,44.00
2018-06-01T22:02:57.493Z,43.67
2018-06-01T22:05:25.161Z,45.27
2018-06-01T22:07:52.812Z,41.37
2018-06-01T22:10:22.707Z,42.07
2018-06-01T22:12:50.408Z,39.53
2018-06-01T22:15:18.031Z,41.27
2018-06-01T22:17:45.602Z,43.37
2018-06-01T22:20:13.355Z,44.97
2018-06-01T22:22:40.927Z,50.10
2018-06-01T22:25:08.573Z,42.07
2018-06-01T22:27:36.136Z,47.03
2018-06-01T22:30:04.847Z,44.80
2018-06-01T22:32:32.539Z,45.07
2018-06-01T22:35:00.889Z,45.00
2018-06-01T22:37:28.519Z,47.10
2018-06-01T22:39:56.111Z,45.07
2018-06-01T22:42:23.709Z,43.10
2018-06-01T22:44:51.273Z,49.23
2018-06-01T22:47:19.668Z,45.67
2018-06-01T22:49:47.345Z,47.90
2018-06-01T22:52:14.915Z,42.90
2018-06-01T22:54:42.516Z,47.50
2018-06-01T22:57:10.983Z,44.43
2018-06-01T22:59:41.769Z,43.80
2018-06-01T23:02:09.340Z,47.60
2018-06-01T23:04:38.167Z,47.40
2018-06-01T23:07:06.764Z,44.07
2018-06-01T23:09:35.091Z,46.17
2018-06-01T23:12:02.673Z,46.03
2018-06-01T23:14:30.305Z,47.00
2018-06-01T23:16:58.583Z,46.03
2018-06-01T23:19:26.196Z,49.57
2018-06-01T23:21:53.780Z,45.10
2018-06-01T23:24:22.100Z,47.57
2018-06-01T23:26:51.084Z,51.33
2018-06-01T23:29:18.651Z,46.80
2018-06-01T23:31:48.066Z,52.60
2018-06-01T23:34:15.664Z,54.27
2018-06-01T23:36:43.991Z,50.80
2018-06-01T23:39:11.571Z,47.53
2018-06-01T23:41:39.165Z,55.93
2018-06-01T23:44:07.480Z,52.00
2018-06-01T23:46:35.176Z,54.30
2018-06-01T23:49:02.740Z,60.33
2018-06-01T23:51:30.308Z,51.90
2018-06-01T23:53:57.871Z,56.43
2018-06-01T23:56:25.445Z,52.40
2018-06-01T23:58:53.768Z,54.17
